createdAt,value
2023-07-05T00:01:50.443Z,23.03
2023-07-05T00:04:52.889Z,22.92
2023-07-05T00:07:55.341Z,23.02
2023-07-05T00:11:08.885Z,23.00
2023-07-05T00:14:11.353Z,23.00
2023-07-05T00:17:13.786Z,22.89
2023-07-05T00:20:17.069Z,22.96
2023-07-05T00:23:19.444Z,22.98
2023-07-05T00:26:21.873Z,22.98
2023-07-05T00:29:24.246Z,22.99
2023-07-05T00:32:26.789Z,22.98
2023-07-05T00:35:29.178Z,22.96
2023-07-05T00:38:31.885Z,22.87
2023-07-05T00:41:34.310Z,22.88
2023-07-05T00:44:36.772Z,22.95
2023-07-05T00:47:41.448Z,22.97
2023-07-05T00:50:47.438Z,22.93
2023-07-05T00:53:50.220Z,22.90
2023-07-05T00:57:01.850Z,22.93
2023-07-05T01:00:09.076Z,22.87
2023-07-05T01:03:13.996Z,22.71
2023-07-05T01:06:16.396Z,22.83
2023-07-05T01:09:21.083Z,22.90
2023-07-05T01:12:36.901Z,22.90
2023-07-05T01:15:49.831Z,22.89
2023-07-05T01:19:04.704Z,22.89
2023-07-05T01:22:10.281Z,22.83
2023-07-05T01:25:36.578Z,22.86
2023-07-05T01:29:16.810Z,22.87
2023-07-05T01:32:30.475Z,22.86
2023-07-05T01:35:37.401Z,22.83
2023-07-05T01:38:39.770Z,22.75
2023-07-05T01:41:43.061Z,22.85
2023-07-05T01:44:46.014Z,22.78
2023-07-05T01:48:05.834Z,22.84
2023-07-05T01:51:10.291Z,22.83
2023-07-05T01:54:40.741Z,22.82
2023-07-05T01:57:52.986Z,22.76
2023-07-05T02:00:57.146Z,22.81
2023-07-05T02:03:59.896Z,22.75
2023-07-05T02:07:05.308Z,22.79
2023-07-05T02:10:08.041Z,22.67
2023-07-05T02:13:12.453Z,22.79
2023-07-05T02:16:14.976Z,22.78
2023-07-05T02:19:18.354Z,22.71
2023-07-05T02:22:20.799Z,22.76
2023-07-05T02:25:23.492Z,22.78
2023-07-05T02:28:25.926Z,22.75
2023-07-05T02:31:29.730Z,22.75
2023-07-05T02:34:32.233Z,22.74
2023-07-05T02:37:36.294Z,22.63
2023-07-05T02:40:38.696Z,22.77
2023-07-05T02:43:41.074Z,22.75
2023-07-05T02:46:43.530Z,22.70
2023-07-05T02:49:46.029Z,22.75
2023-07-05T02:52:48.731Z,22.74
2023-07-05T02:55:52.408Z,22.64
2023-07-05T02:58:54.956Z,22.73
2023-07-05T03:01:57.453Z,22.72
2023-07-05T03:05:07.510Z,22.68
2023-07-05T03:08:10.358Z,22.69
2023-07-05T03:11:12.749Z,22.66
2023-07-05T03:14:15.193Z,22.71
2023-07-05T03:17:17.654Z,22.73
2023-07-05T03:20:20.982Z,22.69
2023-07-05T03:23:23.549Z,22.67
2023-07-05T03:26:27.203Z,22.73
2023-07-05T03:29:30.959Z,22.66
2023-07-05T03:32:35.094Z,22.75
2023-07-05T03:35:37.485Z,22.75
2023-07-05T03:38:40.369Z,22.69
2023-07-05T03:41:42.740Z,22.62
2023-07-05T03:44:45.291Z,22.79
2023-07-05T03:47:47.714Z,22.79
2023-07-05T03:50:50.278Z,22.79
2023-07-05T03:53:57.848Z,22.81
2023-07-05T03:57:00.201Z,22.82
2023-07-05T04:00:02.642Z,22.84
2023-07-05T04:03:14.869Z,22.86
2023-07-05T04:06:18.246Z,22.89
2023-07-05T04:09:20.611Z,22.87
2023-07-05T04:12:23.002Z,22.90
2023-07-05T04:15:25.458Z,22.86
2023-07-05T04:18:28.972Z,22.87
2023-07-05T04:21:31.401Z,22.94
2023-07-05T04:24:33.839Z,22.88
2023-07-05T04:27:36.726Z,22.97
2023-07-05T04:30:39.072Z,22.94
2023-07-05T04:33:41.465Z,23.00
2023-07-05T04:36:43.809Z,23.02
2023-07-05T04:39:46.362Z,23.02
2023-07-05T04:42:49.158Z,23.07
2023-07-05T04:45:52.624Z,23.12
2023-07-05T04:48:55.011Z,23.16
2023-07-05T04:51:57.382Z,23.16
2023-07-05T04:54:59.819Z,23.21
2023-07-05T04:58:04.918Z,23.24
2023-07-05T05:01:09.197Z,23.31
2023-07-05T05:04:11.916Z,23.16
2023-07-05T05:07:14.542Z,23.27
2023-07-05T05:10:17.008Z,23.29
2023-07-05T05:13:19.715Z,23.38
2023-07-05T05:16:22.147Z,23.32
2023-07-05T05:19:24.576Z,23.44
2023-07-05T05:22:26.995Z,23.33
2023-07-05T05:25:29.399Z,23.47
2023-07-05T05:28:31.946Z,23.47
2023-07-05T05:31:34.369Z,23.45
2023-07-05T05:34:36.957Z,23.54
2023-07-05T05:37:40.282Z,23.58
2023-07-05T05:40:42.670Z,23.61
2023-07-05T05:43:46.296Z,23.65
2023-07-05T05:46:48.749Z,23.69
2023-07-05T05:49:51.193Z,23.62
2023-07-05T05:52:53.577Z,23.78
2023-07-05T05:55:57.600Z,23.81
2023-07-05T05:58:59.986Z,23.88
2023-07-05T06:02:02.387Z,23.89
2023-07-05T06:05:05.108Z,24.02
2023-07-05T06:08:07.500Z,24.15
2023-07-05T06:11:09.916Z,24.22
2023-07-05T06:14:12.296Z,24.12
2023-07-05T06:17:14.641Z,24.27
2023-07-05T06:20:17.567Z,24.18
2023-07-05T06:23:20.518Z,24.25
2023-07-05T06:26:24.321Z,24.40
2023-07-05T06:29:26.837Z,24.47
2023-07-05T06:32:29.512Z,24.48
2023-07-05T06:35:32.479Z,24.71
2023-07-05T06:38:35.075Z,24.79
2023-07-05T06:41:37.484Z,24.98
2023-07-05T06:44:39.938Z,25.12
2023-07-05T06:47:42.779Z,25.26
2023-07-05T06:50:45.238Z,25.35
2023-07-05T06:53:49.780Z,25.36
2023-07-05T06:56:52.536Z,25.41
2023-07-05T06:59:54.937Z,25.73
2023-07-05T07:02:58.024Z,25.77
2023-07-05T07:06:00.697Z,25.82
2023-07-05T07:09:05.034Z,25.88
2023-07-05T07:12:08.819Z,26.18
2023-07-05T07:15:11.233Z,26.23
2023-07-05T07:18:13.633Z,26.34
2023-07-05T07:21:18.091Z,26.42
2023-07-05T07:24:20.710Z,26.34
2023-07-05T07:27:23.157Z,26.45
2023-07-05T07:30:26.858Z,26.41
2023-07-05T07:33:29.296Z,26.48
2023-07-05T07:36:33.108Z,26.55
2023-07-05T07:39:35.506Z,26.70
2023-07-05T07:42:37.940Z,26.60
2023-07-05T07:45:40.451Z,26.87
2023-07-05T07:48:44.173Z,26.72
2023-07-05T07:51:46.697Z,26.87
2023-07-05T07:54:49.233Z,26.93
2023-07-05T07:57:51.683Z,26.87
2023-07-05T08:00:54.537Z,26.89
2023-07-05T08:03:58.564Z,26.91
2023-07-05T08:07:02.460Z,26.89
2023-07-05T08:10:05.382Z,26.91
2023-07-05T08:13:07.754Z,26.87
2023-07-05T08:16:10.196Z,26.77
2023-07-05T08:19:12.745Z,26.83
2023-07-05T08:22:16.619Z,26.73
2023-07-05T08:25:20.105Z,26.77
2023-07-05T08:28:23.541Z,26.70
2023-07-05T08:31:26.194Z,26.64
2023-07-05T08:34:28.841Z,26.57
2023-07-05T08:37:31.520Z,26.56
2023-07-05T08:40:39.423Z,26.57
2023-07-05T08:43:45.794Z,26.55
2023-07-05T08:46:52.188Z,26.54
2023-07-05T08:50:17.823Z,26.54
2023-07-05T08:53:25.021Z,26.36
2023-07-05T08:56:37.707Z,26.46
2023-07-05T08:59:48.932Z,26.55
2023-07-05T09:02:51.748Z,26.49
2023-07-05T09:06:00.556Z,26.55
2023-07-05T09:09:27.294Z,26.59
2023-07-05T09:12:38.626Z,26.60
2023-07-05T09:16:07.388Z,26.58
2023-07-05T09:19:42.105Z,26.59
2023-07-05T09:22:45.275Z,26.53
2023-07-05T09:25:55.755Z,26.46
2023-07-05T09:29:31.765Z,26.60
2023-07-05T09:32:37.422Z,26.58
2023-07-05T09:35:44.583Z,26.55
2023-07-05T09:38:47.758Z,26.62
2023-07-05T09:41:51.639Z,26.50
2023-07-05T09:44:54.070Z,26.54
2023-07-05T09:48:00.606Z,26.33
2023-07-05T09:51:05.258Z,26.50
2023-07-05T09:54:12.054Z,26.33
2023-07-05T09:57:24.118Z,26.22
2023-07-05T10:00:35.609Z,26.52
2023-07-05T10:03:45.875Z,26.51
2023-07-05T10:06:49.201Z,26.10
2023-07-05T10:10:17.828Z,26.42
2023-07-05T10:13:23.522Z,26.44
2023-07-05T10:16:25.996Z,26.29
2023-07-05T10:19:39.745Z,26.42
2023-07-05T10:22:42.126Z,26.51
2023-07-05T10:25:45.710Z,26.45
2023-07-05T10:28:48.145Z,26.44
2023-07-05T10:31:59.347Z,26.33
2023-07-05T10:35:02.961Z,26.55
2023-07-05T10:38:20.089Z,26.58
2023-07-05T10:41:33.099Z,26.55
2023-07-05T10:44:36.439Z,26.49
2023-07-05T10:47:39.846Z,26.50
2023-07-05T10:50:42.741Z,26.49
2023-07-05T10:53:49.618Z,26.35
2023-07-05T10:56:52.277Z,26.41
2023-07-05T11:00:29.645Z,26.45
2023-07-05T11:03:57.164Z,26.38
2023-07-05T11:07:07.636Z,26.28
2023-07-05T11:10:29.731Z,26.32
2023-07-05T11:13:32.263Z,26.27
2023-07-05T11:16:35.202Z,26.29
2023-07-05T11:19:37.653Z,26.29
2023-07-05T11:22:45.809Z,26.24
2023-07-05T11:26:00.144Z,26.36
2023-07-05T11:29:31.654Z,26.41
2023-07-05T11:33:13.624Z,26.43
2023-07-05T11:36:29.984Z,26.22
2023-07-05T11:39:39.126Z,26.27
2023-07-05T11:42:41.600Z,26.28
2023-07-05T11:45:47.709Z,26.13
2023-07-05T11:48:50.775Z,26.29
2023-07-05T11:51:59.107Z,26.35
2023-07-05T11:55:15.029Z,26.40
2023-07-05T11:58:18.772Z,26.38
2023-07-05T12:01:28.475Z,26.41
2023-07-05T12:04:33.749Z,26.30
2023-07-05T12:07:36.998Z,26.27
2023-07-05T12:10:42.778Z,26.35
2023-07-05T12:13:45.199Z,26.52
2023-07-05T12:16:48.052Z,26.33
2023-07-05T12:19:51.277Z,26.40
2023-07-05T12:22:53.665Z,26.30
2023-07-05T12:25:58.537Z,26.28
2023-07-05T12:29:04.498Z,26.30
2023-07-05T12:32:09.208Z,26.24
2023-07-05T12:35:22.133Z,26.31
2023-07-05T12:38:24.536Z,26.33
2023-07-05T12:41:28.312Z,26.14
2023-07-05T12:44:32.177Z,26.24
2023-07-05T12:47:34.710Z,26.13
2023-07-05T12:50:37.106Z,26.12
2023-07-05T12:53:39.616Z,26.17
2023-07-05T12:56:45.891Z,26.09
2023-07-05T13:00:00.306Z,26.13
2023-07-05T13:03:15.804Z,26.09
2023-07-05T13:06:19.578Z,26.06
2023-07-05T13:09:30.150Z,26.04
2023-07-05T13:12:46.957Z,25.93
2023-07-05T13:15:49.455Z,26.01
2023-07-05T13:18:57.866Z,25.98
2023-07-05T13:22:17.123Z,25.95
2023-07-05T13:25:31.103Z,25.89
2023-07-05T13:28:33.649Z,25.94
2023-07-05T13:31:36.176Z,25.94
2023-07-05T13:34:38.868Z,25.94
2023-07-05T13:37:41.279Z,25.88
2023-07-05T13:40:59.395Z,25.90
2023-07-05T13:44:01.828Z,25.89
2023-07-05T13:47:06.041Z,25.87
2023-07-05T13:50:09.104Z,25.86
2023-07-05T13:53:20.013Z,25.53
2023-07-05T13:56:22.771Z,25.84
2023-07-05T13:59:25.266Z,25.84
2023-07-05T14:02:33.095Z,25.65
2023-07-05T14:05:35.732Z,25.73
2023-07-05T14:08:38.185Z,25.80
2023-07-05T14:11:42.663Z,25.79
2023-07-05T14:14:45.121Z,25.75
2023-07-05T14:17:47.641Z,25.73
2023-07-05T14:20:50.266Z,25.66
2023-07-05T14:23:52.856Z,25.67
2023-07-05T14:26:55.280Z,25.74
2023-07-05T14:29:58.534Z,25.74
2023-07-05T14:33:01.115Z,25.67
2023-07-05T14:36:03.888Z,25.72
2023-07-05T14:39:06.294Z,25.70
2023-07-05T14:42:10.758Z,25.71
2023-07-05T14:45:20.742Z,25.70
2023-07-05T14:48:23.120Z,25.70
2023-07-05T14:51:26.272Z,25.70
2023-07-05T14:54:29.596Z,25.69
2023-07-05T14:57:31.955Z,25.69
2023-07-05T15:00:34.778Z,25.68
2023-07-05T15:03:41.053Z,25.68
2023-07-05T15:06:43.474Z,25.62
2023-07-05T15:09:46.750Z,25.55
2023-07-05T15:12:49.138Z,25.65
2023-07-05T15:15:51.629Z,25.57
2023-07-05T15:18:54.286Z,25.53
2023-07-05T15:21:56.674Z,25.59
2023-07-05T15:25:00.444Z,25.58
2023-07-05T15:28:06.400Z,25.54
2023-07-05T15:31:10.700Z,25.61
2023-07-05T15:34:13.158Z,25.61
2023-07-05T15:37:15.531Z,25.56
2023-07-05T15:40:21.270Z,25.60
2023-07-05T15:43:24.596Z,25.59
2023-07-05T15:46:27.754Z,25.52
2023-07-05T15:49:30.147Z,25.58
2023-07-05T15:52:33.907Z,25.48
2023-07-05T15:55:36.303Z,25.58
2023-07-05T15:58:44.465Z,25.58
2023-07-05T16:01:53.146Z,25.56
2023-07-05T16:04:55.976Z,25.56
2023-07-05T16:07:58.595Z,25.45
2023-07-05T16:11:01.187Z,25.56
2023-07-05T16:14:03.837Z,25.56
2023-07-05T16:17:06.449Z,25.55
2023-07-05T16:20:09.328Z,25.43
2023-07-05T16:23:11.694Z,25.54
2023-07-05T16:26:14.140Z,25.54
2023-07-05T16:29:18.618Z,25.49
2023-07-05T16:32:21.116Z,25.39
2023-07-05T16:35:23.597Z,25.52
2023-07-05T16:38:26.368Z,25.38
2023-07-05T16:41:28.911Z,25.46
2023-07-05T16:44:31.313Z,25.50
2023-07-05T16:47:33.735Z,25.49
2023-07-05T16:50:36.274Z,25.45
2023-07-05T16:53:40.456Z,25.49
2023-07-05T16:56:42.956Z,25.44
2023-07-05T16:59:45.448Z,25.44
2023-07-05T17:02:47.956Z,25.48
2023-07-05T17:05:54.440Z,25.47
2023-07-05T17:08:56.841Z,25.44
2023-07-05T17:11:59.537Z,25.43
2023-07-05T17:15:01.947Z,25.45
2023-07-05T17:18:04.943Z,25.44
2023-07-05T17:21:09.953Z,25.45
2023-07-05T17:24:12.351Z,25.41
2023-07-05T17:27:14.792Z,25.44
2023-07-05T17:30:17.509Z,25.43
2023-07-05T17:33:19.891Z,25.43
2023-07-05T17:36:23.781Z,25.42
2023-07-05T17:39:26.285Z,25.37
2023-07-05T17:42:28.752Z,25.36
2023-07-05T17:45:31.159Z,25.41
2023-07-05T17:48:33.635Z,25.39
2023-07-05T17:51:36.122Z,25.40
2023-07-05T17:54:38.771Z,25.33
2023-07-05T17:57:41.138Z,25.37
2023-07-05T18:00:47.079Z,25.39
2023-07-05T18:03:49.499Z,25.25
2023-07-05T18:06:52.449Z,25.37
2023-07-05T18:09:54.905Z,25.36
2023-07-05T18:12:57.319Z,25.36
2023-07-05T18:16:05.021Z,25.36
2023-07-05T18:19:08.617Z,25.36
2023-07-05T18:22:11.070Z,25.34
2023-07-05T18:25:14.500Z,25.34
2023-07-05T18:28:17.182Z,25.32
2023-07-05T18:31:21.498Z,25.33
2023-07-05T18:34:24.230Z,25.32
2023-07-05T18:37:26.689Z,25.24
2023-07-05T18:40:29.228Z,25.23
2023-07-05T18:43:31.703Z,25.23
2023-07-05T18:46:34.094Z,25.21
2023-07-05T18:49:36.519Z,25.21
2023-07-05T18:52:39.610Z,25.25
2023-07-05T18:55:42.600Z,25.28
2023-07-05T18:58:45.187Z,25.16
2023-07-05T19:01:47.738Z,25.19
2023-07-05T19:04:50.227Z,25.19
2023-07-05T19:07:52.631Z,25.19
2023-07-05T19:10:59.095Z,25.20
2023-07-05T19:14:01.950Z,25.20
2023-07-05T19:17:05.811Z,25.24
2023-07-05T19:20:10.019Z,25.23
2023-07-05T19:23:12.426Z,25.12
2023-07-05T19:26:17.681Z,25.16
2023-07-05T19:29:22.127Z,25.15
2023-07-05T19:32:24.900Z,25.17
2023-07-05T19:35:27.734Z,25.13
2023-07-05T19:38:30.196Z,25.10
2023-07-05T19:41:33.096Z,25.14
2023-07-05T19:44:35.604Z,25.13
2023-07-05T19:47:38.075Z,25.12
2023-07-05T19:50:40.544Z,25.11
2023-07-05T19:53:42.996Z,25.09
2023-07-05T19:56:45.908Z,25.08
2023-07-05T19:59:48.281Z,25.08
2023-07-05T20:02:50.820Z,25.07
2023-07-05T20:05:53.369Z,24.96
2023-07-05T20:08:56.355Z,25.00
2023-07-05T20:11:58.991Z,24.99
2023-07-05T20:15:01.413Z,25.01
2023-07-05T20:18:05.001Z,24.92
2023-07-05T20:21:10.265Z,24.96
2023-07-05T20:24:15.256Z,24.96
2023-07-05T20:27:17.689Z,24.94
2023-07-05T20:30:21.438Z,24.85
2023-07-05T20:33:32.464Z,24.94
2023-07-05T20:36:36.874Z,24.92
2023-07-05T20:39:39.314Z,24.79
2023-07-05T20:42:43.258Z,24.79
2023-07-05T20:45:45.670Z,24.79
2023-07-05T20:48:48.083Z,24.80
2023-07-05T20:51:53.202Z,24.86
2023-07-05T20:54:55.618Z,24.85
2023-07-05T20:57:59.188Z,24.73
2023-07-05T21:01:01.756Z,24.51
2023-07-05T21:04:04.934Z,24.81
2023-07-05T21:07:07.393Z,24.69
2023-07-05T21:10:10.636Z,24.68
2023-07-05T21:13:21.107Z,24.75
2023-07-05T21:16:23.799Z,24.77
2023-07-05T21:19:26.190Z,24.66
2023-07-05T21:22:28.607Z,24.74
2023-07-05T21:25:32.769Z,24.71
2023-07-05T21:28:35.313Z,24.71
2023-07-05T21:31:37.800Z,24.70
2023-07-05T21:34:40.428Z,24.68
2023-07-05T21:37:43.113Z,24.61
2023-07-05T21:40:46.115Z,24.53
2023-07-05T21:43:48.631Z,24.63
2023-07-05T21:46:52.908Z,24.52
2023-07-05T21:49:55.711Z,24.56
2023-07-05T21:52:58.124Z,24.50
2023-07-05T21:56:02.245Z,24.57
2023-07-05T21:59:05.110Z,24.57
2023-07-05T22:02:07.668Z,24.57
2023-07-05T22:05:10.243Z,24.54
2023-07-05T22:08:12.651Z,24.39
2023-07-05T22:11:15.664Z,24.45
2023-07-05T22:14:18.076Z,24.50
2023-07-05T22:17:22.505Z,24.50
2023-07-05T22:20:26.291Z,24.44
2023-07-05T22:23:28.682Z,24.48
2023-07-05T22:26:31.085Z,24.39
2023-07-05T22:29:33.856Z,24.46
2023-07-05T22:32:36.453Z,24.37
2023-07-05T22:35:38.833Z,24.30
2023-07-05T22:38:41.557Z,24.35
2023-07-05T22:41:44.009Z,24.42
2023-07-05T22:44:46.539Z,24.33
2023-07-05T22:47:49.052Z,24.37
2023-07-05T22:50:51.441Z,24.23
2023-07-05T22:53:53.892Z,24.35
2023-07-05T22:56:58.066Z,24.38
2023-07-05T23:00:00.553Z,24.30
2023-07-05T23:03:03.113Z,24.32
2023-07-05T23:06:10.797Z,24.35
2023-07-05T23:09:13.188Z,24.33
2023-07-05T23:12:18.193Z,24.31
2023-07-05T23:15:23.975Z,24.23
2023-07-05T23:18:27.148Z,24.29
2023-07-05T23:21:29.627Z,24.29
2023-07-05T23:24:32.003Z,24.20
2023-07-05T23:27:34.788Z,24.15
2023-07-05T23:30:37.190Z,24.12
2023-07-05T23:33:40.380Z,24.19
2023-07-05T23:36:43.527Z,24.12
2023-07-05T23:39:46.363Z,24.23
2023-07-05T23:42:48.755Z,24.17
2023-07-05T23:45:51.103Z,24.11
2023-07-05T23:48:54.499Z,24.14
2023-07-05T23:51:57.797Z,24.11
2023-07-05T23:55:00.177Z,24.14
2023-07-05T23:58:05.864Z,24.18
